地図

経路データ

SID SEASON NUMBER BASIN SUBBASIN NAME ISO_TIME NATURE LAT LON WMO_WIND WMO_PRES WMO_AGENCY TRACK_TYPE DIST2LAND LANDFALL IFLAG USA_AGENCY USA_ATCF_ID USA_LAT USA_LON USA_RECORD USA_STATUS USA_WIND USA_PRES USA_SSHS USA_R34_NE USA_R34_SE USA_R34_SW USA_R34_NW USA_R50_NE USA_R50_SE USA_R50_SW USA_R50_NW USA_R64_NE USA_R64_SE USA_R64_SW USA_R64_NW USA_POCI USA_ROCI USA_RMW USA_EYE TOKYO_LAT TOKYO_LON TOKYO_GRADE TOKYO_WIND TOKYO_PRES TOKYO_R50_DIR TOKYO_R50_LONG TOKYO_R50_SHORT TOKYO_R30_DIR TOKYO_R30_LONG TOKYO_R30_SHORT TOKYO_LAND CMA_LAT CMA_LON CMA_CAT CMA_WIND CMA_PRES HKO_LAT HKO_LON HKO_CAT HKO_WIND HKO_PRES NEWDELHI_LAT NEWDELHI_LON NEWDELHI_GRADE NEWDELHI_WIND NEWDELHI_PRES NEWDELHI_CI NEWDELHI_DP NEWDELHI_POCI REUNION_LAT REUNION_LON REUNION_TYPE REUNION_WIND REUNION_PRES REUNION_TNUM REUNION_CI REUNION_RMW REUNION_R34_NE REUNION_R34_SE REUNION_R34_SW REUNION_R34_NW REUNION_R50_NE REUNION_R50_SE REUNION_R50_SW REUNION_R50_NW REUNION_R64_NE REUNION_R64_SE REUNION_R64_SW REUNION_R64_NW BOM_LAT BOM_LON BOM_TYPE BOM_WIND BOM_PRES BOM_TNUM BOM_CI BOM_RMW BOM_R34_NE BOM_R34_SE BOM_R34_SW BOM_R34_NW BOM_R50_NE BOM_R50_SE BOM_R50_SW BOM_R50_NW BOM_R64_NE BOM_R64_SE BOM_R64_SW BOM_R64_NW BOM_ROCI BOM_POCI BOM_EYE BOM_POS_METHOD BOM_PRES_METHOD NADI_LAT NADI_LON NADI_CAT NADI_WIND NADI_PRES WELLINGTON_LAT WELLINGTON_LON WELLINGTON_WIND WELLINGTON_PRES DS824_LAT DS824_LON DS824_STAGE DS824_WIND DS824_PRES TD9636_LAT TD9636_LON TD9636_STAGE TD9636_WIND TD9636_PRES TD9635_LAT TD9635_LON TD9635_WIND TD9635_PRES TD9635_ROCI NEUMANN_LAT NEUMANN_LON NEUMANN_CLASS NEUMANN_WIND NEUMANN_PRES MLC_LAT MLC_LON MLC_CLASS MLC_WIND MLC_PRES USA_GUST BOM_GUST BOM_GUST_PER REUNION_GUST REUNION_GUST_PER USA_SEAHGT USA_SEARAD_NE USA_SEARAD_SE USA_SEARAD_SW USA_SEARAD_NW STORM_SPEED STORM_DIR
1973072S12127 1973 37 SI WA NELLIE 1973-03-13 01:00:00 NR -12.0000 127.000 25 1001 bom main 201 190 ______O___O___ -1 -12.0000 127.000 20 25 1001 2.00000 2.00000 -12.0000 127.000 2 45 45 10 248
1973072S12127 1973 37 SI WA NELLIE 1973-03-13 03:00:00 NR -12.1218 126.688 main 191 182 ______P___P___ -1 -12.1333 126.753 20 25 1002 -12.1103 126.623 2 10 249
1973072S12127 1973 37 SI WA NELLIE 1973-03-13 04:00:00 NR -12.1833 126.517 25 1003 bom main 184 180 ______O___P___ -1 -12.2000 126.600 20 25 1003 2.00000 -12.1666 126.434 2 45 45 11 251
1973072S12127 1973 37 SI WA NELLIE 1973-03-13 06:00:00 TS -12.3058 126.139 main 189 179 O_____P__OP_O_ jtwc_sh SH301973 -12.3000 126.100 55 0 -12.3333 126.211 20 25 1000 -12.3000 126.200 TC 30 1000 -12.2839 126.055 2 -12.3000 126.200 TC 25 1001 12 252
1973072S12127 1973 37 SI WA NELLIE 1973-03-13 07:00:00 TS -12.3648 125.941 25 1000 bom main 180 176 P_____O__PP_P_ SH301973 -12.3582 125.898 55 0 -12.4000 126.000 20 25 1000 2.00000 -12.3464 125.983 TC 29 1000 -12.3461 125.865 2 -12.3636 126.020 TC 25 1001 45 45 12 252
1973072S12127 1973 37 SI WA NELLIE 1973-03-13 09:00:00 TS -12.4886 125.548 main 180 180 P_____P__PP_P_ SH301973 -12.4803 125.495 55 0 -12.5333 125.608 20 25 1000 -12.4528 125.550 TC 27 1001 -12.4799 125.481 2 -12.4927 125.658 TC 25 1001 12 252
1973072S12127 1973 37 SI WA NELLIE 1973-03-13 10:00:00 TS -12.5544 125.348 25 1000 bom main 179 179 P_____O__PP_P_ SH301973 -12.5472 125.295 55 0 -12.6000 125.400 20 25 1000 2.00000 -12.5200 125.333 TC 26 1001 -12.5526 125.288 2 -12.5594 125.474 TC 25 1001 45 45 13 250
1973072S12127 1973 37 SI WA NELLIE 1973-03-13 12:00:00 TS -12.7049 124.938 main 194 188 O_____P__OP_O_ jtwc_sh SH301973 -12.7000 124.900 55 0 -12.7175 124.931 20 25 1001 -12.7000 124.900 TC 25 1002 -12.7121 124.897 2 -12.7000 125.100 TC 25 1001 13 248
1973072S12127 1973 37 SI WA NELLIE 1973-03-13 13:00:00 TS -12.7950 124.734 25 1002 bom main 194 190 P_____O__PO_P_ SH301973 -12.7885 124.705 55 0 -12.8000 124.700 20 25 1002 2.00000 -12.8183 124.683 TC 25 1001 -12.8000 124.700 2 -12.7749 124.908 TC 25 1000 45 45 13 243
1973072S12127 1973 37 SI WA NELLIE 1973-03-13 15:00:00 TS -13.0075 124.333 main 202 199 P_____P__PP_P_ SH301973 -12.9848 124.315 55 0 -13.0557 124.302 20 25 1002 -13.0923 124.250 TC 27 1000 -12.9924 124.300 2 -12.9349 124.515 TC 27 1000 14 241
1973072S12127 1973 37 SI WA NELLIE 1973-03-13 16:00:00 TS -13.1213 124.129 25 1003 bom main 205 196 P_____O__PP_P_ SH301973 -13.0889 124.116 55 0 -13.2000 124.100 20 25 1003 2.00000 -13.2352 124.034 TC 28 1000 -13.0949 124.096 2 -13.0199 124.313 TC 28 1000 45 45 14 241
1973072S12127 1973 37 SI WA NELLIE 1973-03-13 18:00:00 TS -13.3469 123.702 main 217 210 O_____P__OP_O_ jtwc_sh SH301973 -13.3000 123.700 55 0 -13.4746 123.631 20 28 1000 -13.5000 123.600 TC 30 999 -13.3068 123.681 2 -13.2000 123.900 TC 30 1000 14 242
1973072S12127 1973 37 SI WA NELLIE 1973-03-13 19:00:00 TS -13.4562 123.485 30 999 bom main 220 220 P_____O__PP_P_ SH301973 -13.4052 123.481 55 0 -13.6000 123.400 20 30 999 2.50000 -13.6108 123.386 TC 30 998 -13.4139 123.468 2 -13.3021 123.694 TC 30 999 45 45 14 243
1973072S12127 1973 37 SI WA NELLIE 1973-03-13 21:00:00 TS -13.6654 123.051 main 247 256 P_____P__PP_P_ SH301973 -13.6149 123.022 55 0 -13.8212 123.002 20 30 998 -13.8023 122.957 TC 32 997 -13.6246 123.031 2 -13.5148 123.273 TC 32 998 14 245
1973072S12127 1973 37 SI WA NELLIE 1973-03-13 22:00:00 TS -13.7594 122.829 30 998 bom main 265 265 P_____O__PP_P_ SH301973 -13.7157 122.785 55 0 -13.9000 122.800 20 30 998 2.50000 -13.8810 122.741 TC 33 997 -13.7260 122.806 2 -13.6181 123.055 TC 33 998 45 45 14 249
1973072S12127 1973 37 SI WA NELLIE 1973-03-14 00:00:00 TS -13.9167 122.363 main 287 289 O_____P__OP_O_ jtwc_sh SH301973 -13.9000 122.300 55 0 -13.9854 122.339 20 33 996 -14.0000 122.300 TC 35 996 -13.9148 122.341 2 -13.8000 122.600 TC 35 997 14 252
1973072S12127 1973 37 SI WA NELLIE 1973-03-14 01:00:00 TS -13.9775 122.127 35 996 bom main 292 292 P_____O__PO_P_ SH301973 -13.9832 122.058 55 0 -14.0000 122.100 30 35 996 3.00000 3.00000 -14.0315 122.080 TC 36 995 -14.0000 122.100 2 -13.8670 122.364 TC 35 996 49 49 14 258
1973072S12127 1973 37 SI WA NELLIE 1973-03-14 03:00:00 TS -14.0666 121.646 main 302 302 P_____P__PP_P_ SH301973 -14.1298 121.565 55 0 -13.9975 121.641 30 35 994 -14.0572 121.629 TC 40 994 -14.1131 121.602 2 -13.9723 121.872 TC 37 995 14 260
1973072S12127 1973 37 SI WA NELLIE 1973-03-14 04:00:00 TS -14.1045 121.398 35 994 bom main 313 313 P_____O__PP_P_ SH301973 -14.1931 121.313 55 0 -14.0000 121.400 30 35 994 3.00000 -14.0644 121.395 TC 41 993 -14.1604 121.345 2 -14.0161 121.619 TC 38 994 49 49 15 261
1973072S12127 1973 37 SI WA NELLIE 1973-03-14 06:00:00 TS -14.1830 120.883 main 335 342 O_____P__OP_O_ jtwc_sh SH301973 -14.3000 120.800 55 0 -14.0533 120.880 30 38 992 -14.1000 120.900 TC 45 992 -14.2445 120.819 2 -14.1000 121.100 TC 40 993 15 261
1973072S12127 1973 37 SI WA NELLIE 1973-03-14 07:00:00 TS -14.2215 120.617 40 992 bom main 356 356 P_____O__PP_P_ SH301973 -14.3315 120.541 55 0 -14.1000 120.600 30 40 992 3.00000 -14.1417 120.631 TC 45 991 -14.2846 120.550 2 -14.1394 120.839 TC 41 992 55 55 16 261
1973072S12127 1973 37 SI WA NELLIE 1973-03-14 09:00:00 TS -14.3030 120.067 main 387 394 P_____P__PP_P_ SH301973 -14.3772 120.014 57 0 -14.2200 119.998 30 40 990 -14.2550 120.065 TC 47 990 -14.3690 120.005 2 -14.2198 120.307 TC 45 991 16 261
1973072S12127 1973 37 SI WA NELLIE 1973-03-14 10:00:00 TS -14.3534 119.789 40 990 bom main 402 402 P_____O__PP_P_ SH301973 -14.4044 119.746 58 0 -14.3000 119.700 30 40 990 3.00000 -14.3267 119.775 TC 48 990 -14.4165 119.730 2 -14.2682 120.038 TC 46 990 55 55 16 257
1973072S12127 1973 37 SI WA NELLIE 1973-03-14 12:00:00 TS -14.4875 119.240 main 441 441 O_____P__OP_O_ jtwc_sh SH301973 -14.5000 119.200 60 0 -14.4945 119.161 30 43 989 -14.5000 119.200 TC 50 989 -14.5304 119.177 2 -14.4000 119.500 TC 50 989 17 254
1973072S12127 1973 37 SI WA NELLIE 1973-03-14 13:00:00 TS -14.5782 118.968 45 989 bom main 450 450 P_____O__PO_P_ SH301973 -14.5880 118.920 60 0 -14.6000 118.900 30 45 989 3.00000 -14.5993 118.930 TC 50 988 -14.6000 118.900 2 -14.4936 119.236 TC 50 988 64 64 17 249
1973072S12127 1973 37 SI WA NELLIE 1973-03-14 15:00:00 TS -14.7931 118.420 main 490 490 P_____P__PP_P_ SH301973 -14.8124 118.350 60 0 -14.7920 118.367 30 48 988 -14.8271 118.400 TC 50 987 -14.7952 118.348 2 -14.7197 118.708 TC 52 987 17 247
1973072S12127 1973 37 SI WA NELLIE 1973-03-14 16:00:00 TS -14.9129 118.146 50 988 bom main 512 506 P_____O__PP_P_ SH301973 -14.9394 118.064 60 0 -14.9000 118.100 30 50 988 3.50000 -14.9500 118.136 TC 50 987 -14.9042 118.071 2 -14.8446 118.441 TC 53 987 69 69 18 245
1973072S12127 1973 37 SI WA NELLIE 1973-03-14 18:00:00 TS -15.1667 117.595 main 544 554 O_____P__OP_O_ jtwc_sh SH301973 -15.2000 117.500 60 0 -15.1612 117.559 30 50 986 -15.2000 117.600 TC 50 986 -15.1389 117.514 2 -15.1000 117.900 TC 55 986 18 245
1973072S12127 1973 37 SI WA NELLIE 1973-03-14 19:00:00 TS -15.2902 117.321 50 986 bom main 568 560 P_____O__PP_P_ SH301973 -15.3191 117.228 60 0 -15.3000 117.300 30 50 986 3.50000 -15.3219 117.317 TC 50 985 -15.2620 117.236 2 -15.2192 117.617 TC 55 985 69 69 17 245
1973072S12127 1973 37 SI WA NELLIE 1973-03-14 21:00:00 TS -15.5373 116.784 main 565 557 P_____P__PP_P_ SH301973 -15.5571 116.692 60 0 -15.5744 116.852 30 50 984 -15.5649 116.743 TC 52 984 -15.5131 116.683 2 -15.4574 117.042 TC 55 984 17 245
1973072S12127 1973 37 SI WA NELLIE 1973-03-14 22:00:00 TS -15.6573 116.513 50 984 bom main 548 531 P_____O__PP_P_ SH301973 -15.6742 116.428 60 0 -15.7000 116.600 30 50 984 3.50000 -15.6824 116.456 TC 53 983 -15.6387 116.408 2 -15.5745 116.756 TC 55 984 69 69 18 247
1973072S12127 1973 37 SI WA NELLIE 1973-03-15 00:00:00 TS -15.8815 115.949 main 532 523 O_____P__OP_O_ jtwc_sh SH301973 -15.9000 115.900 60 0 -15.9056 115.926 30 53 982 -15.9000 115.900 TC 55 982 -15.8834 115.866 2 -15.8000 116.200 TC 55 983 17 248
1973072S12127 1973 37 SI WA NELLIE 1973-03-15 01:00:00 TS -15.9861 115.673 55 982 bom main 525 517 P_____O__PO_P_ SH301973 -16.0082 115.631 60 0 -16.0000 115.600 30 55 982 4.00000 4.00000 -15.9919 115.641 TC 56 981 -16.0000 115.600 2 -15.9081 115.938 TC 56 982 75 75 16 248
1973072S12127 1973 37 SI WA NELLIE 1973-03-15 03:00:00 TS -16.1879 115.156 main 517 513 P_____P__PP_P_ SH301973 -16.2148 115.092 60 0 -16.2077 115.125 30 55 979 -16.1570 115.142 TC 60 979 -16.2187 115.049 2 -16.1146 115.435 TC 60 980 16 248
1973072S12127 1973 37 SI WA NELLIE 1973-03-15 04:00:00 TS -16.2833 114.902 55 979 bom main 517 515 P_____O__PP_P_ SH301973 -16.3131 114.825 60 0 -16.3000 114.900 30 55 979 4.00000 -16.2359 114.897 TC 61 978 -16.3249 114.776 2 -16.2130 115.189 TC 61 979 75 75 16 250
1973072S12127 1973 37 SI WA NELLIE 1973-03-15 06:00:00 TS -16.4599 114.385 main 518 523 O_____P__OP_O_ jtwc_sh SH301973 -16.5000 114.300 60 0 -16.4308 114.372 30 58 976 -16.4000 114.400 TC 65 976 -16.5286 114.241 2 -16.4000 114.700 TC 65 978 16 250
1973072S12127 1973 37 SI WA NELLIE 1973-03-15 07:00:00 TS -16.5512 114.119 60 976 bom main 524 524 P_____O__PP_P_ SH301973 -16.5942 114.034 60 0 -16.5000 114.100 30 60 976 4.00000 -16.4996 114.126 TC 65 975 -16.6251 113.981 2 -16.4943 114.439 TC 65 977 84 84 16 250
1973072S12127 1973 37 SI WA NELLIE 1973-03-15 09:00:00 TS -16.7375 113.593 main 543 539 P_____P__PP_P_ SH301973 -16.7724 113.512 60 0 -16.6945 113.559 30 63 973 -16.7077 113.570 TC 67 973 -16.8052 113.481 2 -16.6725 113.920 TC 67 975 16 250
1973072S12127 1973 37 SI WA NELLIE 1973-03-15 10:00:00 TS -16.8270 113.340 65 973 bom main 550 541 P_____O__PP_P_ SH301973 -16.8545 113.263 60 0 -16.8000 113.300 40 65 973 4.50000 -16.8105 113.299 TC 68 972 -16.8877 113.245 2 -16.7546 113.668 TC 68 974 89 89 15 250
1973072S12127 1973 37 SI WA NELLIE 1973-03-15 12:00:00 TS -16.9906 112.870 main 556 553 O_____P__OP_O_ jtwc_sh SH301973 -17.0000 112.800 60 0 -17.0078 112.820 40 65 971 -17.0000 112.800 TC 70 971 -17.0356 112.803 2 -16.9000 113.200 TC 70 972 14 250
1973072S12127 1973 37 SI WA NELLIE 1973-03-15 13:00:00 TS -17.0629 112.655 65 971 bom main 553 551 P_____O__PO_P_ SH301973 -17.0639 112.583 60 0 -17.1000 112.600 40 65 971 4.50000 -17.0857 112.578 TC 70 970 -17.1000 112.600 2 -16.9639 112.986 TC 70 971 89 89 12 252
1973072S12127 1973 37 SI WA NELLIE 1973-03-15 15:00:00 TS -17.1857 112.260 main 555 558 P_____P__PP_P_ SH301973 -17.1723 112.190 60 0 -17.2467 112.179 40 68 968 -17.2372 112.182 TC 72 968 -17.2136 112.221 2 -17.0722 112.597 TC 72 970 11 252
1973072S12127 1973 37 SI WA NELLIE 1973-03-15 16:00:00 TS -17.2363 112.084 70 968 bom main 562 555 P_____O__PP_P_ SH301973 -17.2186 112.013 60 0 -17.3000 112.000 40 70 968 4.50000 -17.3010 112.008 TC 73 967 -17.2613 112.048 2 -17.1186 112.421 TC 73 969 99 99 10 254
1973072S12127 1973 37 SI WA NELLIE 1973-03-15 18:00:00 TS -17.3188 111.776 main 563 563 O_____P__OP_O_ jtwc_sh SH301973 -17.3000 111.700 60 0 -17.3720 111.722 40 73 966 -17.4000 111.700 TC 75 966 -17.3409 111.734 2 -17.2000 112.100 TC 75 968 9 255
1973072S12127 1973 37 SI WA NELLIE 1973-03-15 19:00:00 TS -17.3553 111.634 75 966 bom main 562 562 P_____O__PP_P_ SH301973 -17.3415 111.555 60 0 -17.4000 111.600 40 75 966 4.50000 -17.4337 111.555 TC 75 965 -17.3736 111.592 2 -17.2416 111.944 TC 75 967 104 104 8 255
1973072S12127 1973 37 SI WA NELLIE 1973-03-15 21:00:00 TS -17.4198 111.372 main 572 572 P_____P__PP_P_ SH301973 -17.4148 111.305 60 0 -17.4746 111.325 40 78 965 -17.4723 111.305 TC 77 965 -17.4274 111.332 2 -17.3148 111.662 TC 77 966 7 256
1973072S12127 1973 37 SI WA NELLIE 1973-03-15 22:00:00 TS -17.4453 111.256 80 965 bom main 577 572 P_____O__PP_P_ SH301973 -17.4465 111.196 60 0 -17.5000 111.200 40 80 965 5.00000 -17.4828 111.196 TC 78 964 -17.4492 111.214 2 -17.3465 111.535 TC 78 966 110 110 6 259
1973072S12127 1973 37 SI WA NELLIE 1973-03-16 00:00:00 TS -17.4818 111.049 main 583 583 O_____P__OP_O_ jtwc_sh SH301973 -17.5000 111.000 60 0 -17.5054 110.995 40 80 964 -17.5000 111.000 TC 80 964 -17.4851 110.999 2 -17.4000 111.300 TC 80 965 6 260
1973072S12127 1973 37 SI WA NELLIE 1973-03-16 01:00:00 TS -17.4986 110.949 80 964 bom main 589 589 P_____O__PO_P_ SH301973 -17.5250 110.903 60 0 -17.5000 110.900 40 80 964 5.00000 5.00000 -17.5192 110.903 TC 80 964 -17.5000 110.900 2 -17.4223 111.186 TC 80 964 110 110 6 260
1973072S12127 1973 37 SI WA NELLIE 1973-03-16 03:00:00 TS -17.5293 110.758 main 595 601 P_____P__PP_P_ SH301973 -17.5649 110.727 60 0 -17.4921 110.692 40 80 964 -17.5574 110.728 TC 80 964 -17.5387 110.696 2 -17.4574 110.977 TC 80 964 5 260
1973072S12127 1973 37 SI WA NELLIE 1973-03-16 04:00:00 TS -17.5434 110.672 80 964 bom main 601 598 P_____O__PP_P_ SH301973 -17.5799 110.648 60 0 -17.5000 110.600 40 80 964 5.00000 -17.5745 110.648 TC 80 964 -17.5542 110.605 2 -17.4720 110.881 TC 80 964 110 110 5 259
1973072S12127 1973 37 SI WA NELLIE 1973-03-16 06:00:00 TS -17.5746 110.517 main 604 604 O_____P__OP_O_ jtwc_sh SH301973 -17.6000 110.500 60 0 -17.5691 110.461 40 80 964 -17.6000 110.500 TC 80 964 -17.5783 110.441 2 -17.5000 110.700 TC 80 964 4 259
1973072S12127 1973 37 SI WA NELLIE 1973-03-16 07:00:00 TS -17.5872 110.443 80 964 bom main 610 610 P_____O__PP_P_ SH301973 -17.6057 110.428 60 0 -17.6000 110.400 40 80 964 5.00000 -17.6057 110.428 TC 80 964 -17.5870 110.367 2 -17.5193 110.606 TC 80 964 110 110 4 264
1973072S12127 1973 37 SI WA NELLIE 1973-03-16 09:00:00 TS -17.5973 110.301 main 617 617 P_____P__PP_P_ SH301973 -17.6075 110.292 60 0 -17.6054 110.267 40 80 964 -17.6075 110.292 TC 80 964 -17.5984 110.233 2 -17.5575 110.428 TC 80 964 4 267
1973072S12127 1973 37 SI WA NELLIE 1973-03-16 10:00:00 TS -17.5987 110.233 80 964 bom main 623 623 P_____O__PP_P_ SH301973 -17.6054 110.228 60 0 -17.6000 110.200 40 80 964 5.00000 -17.6054 110.228 TC 80 964 -17.6013 110.171 2 -17.5746 110.345 TC 80 964 110 110 4 269
1973072S12127 1973 37 SI WA NELLIE 1973-03-16 12:00:00 TS -17.6003 110.104 main 630 630 O_____P__OP_O_ jtwc_sh SH301973 -17.6000 110.100 60 0 -17.6000 110.067 40 80 964 -17.6000 110.100 TC 80 964 -17.6020 110.055 2 -17.6000 110.200 TC 80 964 4 269
1973072S12127 1973 37 SI WA NELLIE 1973-03-16 13:00:00 TS -17.6027 110.038 80 964 bom main 637 637 P_____O__PO_P_ SH301973 -17.6026 110.031 59 0 -17.6000 110.000 40 80 964 5.00000 -17.6026 110.031 TC 80 964 -17.6000 110.000 2 -17.6083 110.139 TC 80 964 110 110 4 268
1973072S12127 1973 37 SI WA NELLIE 1973-03-16 15:00:00 TS -17.6058 109.908 main 644 644 P_____P__PP_P_ SH301973 -17.6075 109.893 57 0 -17.6000 109.859 40 80 964 -17.6075 109.893 TC 80 964 -17.5973 109.878 2 -17.6149 110.035 TC 80 964 4 269
1973072S12127 1973 37 SI WA NELLIE 1973-03-16 16:00:00 TS -17.6051 109.848 80 964 bom main 651 651 P_____O__PP_P_ SH301973 -17.6079 109.825 56 0 -17.6000 109.800 40 80 964 5.00000 -17.6079 109.825 TC 80 964 -17.5933 109.820 2 -17.6133 109.989 TC 80 964 110 110 3 273
1973072S12127 1973 37 SI WA NELLIE 1973-03-16 18:00:00 TS -17.5981 109.741 main 658 658 O_____P__OP_O_ jtwc_sh SH301973 -17.6000 109.700 55 0 -17.6079 109.736 40 80 964 -17.6000 109.700 TC 80 964 -17.5808 109.713 2 -17.6000 109.900 TC 80 964 3 276
1973072S12127 1973 37 SI WA NELLIE 1973-03-16 19:00:00 TS -17.5881 109.689 80 964 bom main 658 658 P_____O__PP_P_ SH301973 -17.5890 109.642 55 0 -17.6000 109.700 40 80 964 5.00000 -17.5890 109.642 TC 80 964 -17.5724 109.662 2 -17.5890 109.847 TC 80 964 110 110 3 287
1973072S12127 1973 37 SI WA NELLIE 1973-03-16 21:00:00 TS -17.5521 109.580 main 665 673 P_____P__PP_P_ SH301973 -17.5575 109.535 55 0 -17.5309 109.564 40 80 964 -17.5575 109.535 TC 80 964 -17.5520 109.568 2 -17.5575 109.742 TC 80 964 3 290
1973072S12127 1973 37 SI WA NELLIE 1973-03-16 22:00:00 TS -17.5325 109.529 80 964 bom main 681 681 P_____O__PP_P_ SH301973 -17.5388 109.487 55 0 -17.5000 109.500 40 80 964 5.00000 -17.5388 109.487 TC 80 964 -17.5403 109.523 2 -17.5388 109.692 TC 80 964 110 110 3 291
1973072S12127 1973 37 SI WA NELLIE 1973-03-17 00:00:00 TS -17.5014 109.445 main 688 688 O_____P__OP_O_ jtwc_sh SH301973 -17.5000 109.400 55 0 -17.4946 109.428 40 80 964 -17.5000 109.400 TC 80 964 -17.5141 109.440 2 -17.5000 109.600 TC 80 964 2 290
1973072S12127 1973 37 SI WA NELLIE 1973-03-17 01:00:00 TS -17.4889 109.407 80 964 bom main 688 688 P_____O__PO_P_ SH301973 -17.4833 109.361 55 0 -17.5000 109.400 40 80 964 5.00000 5.00000 -17.4833 109.361 TC 80 964 -17.5000 109.400 2 50 -17.4833 109.561 TC 80 964 110 110 2 290
1973072S12127 1973 37 SI WA NELLIE 1973-03-17 03:00:00 TS -17.4638 109.338 main 695 695 P_____P__PP_P_ SH301973 -17.4500 109.293 55 0 -17.5079 109.333 40 80 964 -17.4500 109.293 TC 80 964 -17.4749 109.327 2 50 -17.4500 109.493 TC 80 964 2 292
1973072S12127 1973 37 SI WA NELLIE 1973-03-17 04:00:00 TS -17.4491 109.306 80 964 bom main 703 703 P_____O__PP_P_ SH301973 -17.4333 109.261 55 0 -17.5000 109.300 40 80 964 5.00000 -17.4333 109.261 TC 80 964 -17.4612 109.294 2 51 -17.4333 109.461 TC 80 964 110 110 2 301
1973072S12127 1973 37 SI WA NELLIE 1973-03-17 06:00:00 TS -17.4103 109.244 main 711 711 O_____P__OP_O_ jtwc_sh SH301973 -17.4000 109.200 55 0 -17.4309 109.233 40 80 964 -17.4000 109.200 TC 80 964 -17.4311 109.231 2 52 -17.4000 109.400 TC 80 964 2 304
1973072S12127 1973 37 SI WA NELLIE 1973-03-17 07:00:00 TS -17.3909 109.212 80 964 bom main 711 711 P_____O__PP_P_ SH301973 -17.3833 109.167 55 0 -17.4000 109.200 40 80 964 5.00000 -17.3833 109.167 TC 80 964 -17.4149 109.200 2 52 -17.3807 109.369 TC 80 964 110 110 2 297
1973072S12127 1973 37 SI WA NELLIE 1973-03-17 09:00:00 TS -17.3625 109.147 main 718 718 P_____P__PP_P_ SH301973 -17.3500 109.100 55 0 -17.4025 109.133 40 80 964 -17.3500 109.100 TC 80 964 -17.3799 109.138 2 53 -17.3425 109.308 TC 80 964 2 294
1973072S12127 1973 37 SI WA NELLIE 1973-03-17 10:00:00 TS -17.3478 109.113 80 964 bom main 726 726 P_____O__PP_P_ SH301973 -17.3333 109.067 55 0 -17.4000 109.100 40 80 964 5.00000 -17.3333 109.067 TC 80 964 -17.3612 109.106 2 53 -17.3254 109.275 TC 80 964 110 110 2 299
1973072S12127 1973 37 SI WA NELLIE 1973-03-17 12:00:00 TS -17.3087 109.045 main 734 734 O_____P__OP_O_ jtwc_sh SH301973 -17.3000 109.000 55 0 -17.3309 109.033 40 80 964 -17.3000 109.000 TC 80 964 -17.3212 109.038 2 54 -17.3000 109.200 TC 80 964 2 299
1973072S12127 1973 37 SI WA NELLIE 1973-03-17 13:00:00 TS -17.2929 109.011 80 964 bom main 734 734 P_____O__PO_P_ SH301973 -17.2859 108.969 55 0 -17.3000 109.000 40 80 964 5.00000 -17.2859 108.969 TC 80 964 -17.3000 109.000 2 55 -17.2995 109.156 TC 80 964 110 110 2 289
1973072S12127 1973 37 SI WA NELLIE 1973-03-17 15:00:00 TS -17.2743 108.940 main 741 741 P_____P__PP_P_ SH301973 -17.2575 108.908 55 0 -17.3025 108.941 40 80 964 -17.2575 108.908 TC 80 964 -17.2635 108.919 2 53 -17.3075 109.058 TC 80 964 2 285
1973072S12127 1973 37 SI WA NELLIE 1973-03-17 16:00:00 TS -17.2631 108.901 80 964 bom main 741 741 P_____O__PP_P_ SH301973 -17.2412 108.875 55 0 -17.3000 108.900 40 80 964 5.00000 -17.2412 108.875 TC 80 964 -17.2443 108.877 2 52 -17.3104 109.005 TC 80 964 110 110 3 292
1973072S12127 1973 37 SI WA NELLIE 1973-03-17 18:00:00 TS -17.2236 108.808 main 756 756 O_____P__OP_O_ jtwc_sh SH301973 -17.2000 108.800 55 0 -17.2388 108.764 40 80 964 -17.2000 108.800 TC 80 964 -17.2027 108.786 2 50 -17.3000 108.900 TC 80 964 3 297
1973072S12127 1973 37 SI WA NELLIE 1973-03-17 19:00:00 TS -17.1963 108.761 80 964 bom main 756 756 P_____O__PP_P_ SH301973 -17.1724 108.758 54 0 -17.2000 108.700 40 80 964 5.00000 -17.1724 108.758 TC 80 964 -17.1799 108.738 2 50 -17.2807 108.853 TC 80 964 110 110 3 304
1973072S12127 1973 37 SI WA NELLIE 1973-03-17 21:00:00 TS -17.1345 108.671 main 772 772 P_____P__PP_P_ SH301973 -17.1075 108.665 52 0 -17.1333 108.636 40 80 964 -17.1075 108.665 TC 80 964 -17.1290 108.635 2 48 -17.2225 108.758 TC 80 964 3 306
1973072S12127 1973 37 SI WA NELLIE 1973-03-17 22:00:00 TS -17.1004 108.621 80 964 bom main 779 779 P_____O__PP_P_ SH301973 -17.0721 108.613 51 0 -17.1000 108.600 40 80 964 5.00000 -17.0721 108.613 TC 80 964 -17.1005 108.580 2 47 -17.1854 108.708 TC 80 964 110 110 4 304
1973072S12127 1973 37 SI WA NELLIE 1973-03-18 00:00:00 TS -17.0283 108.506 main 795 795 O_____P__OP_O_ jtwc_sh SH301973 -17.0000 108.500 50 0 -17.0333 108.472 40 80 964 -17.0000 108.500 TC 80 964 -17.0362 108.463 2 45 -17.1000 108.600 TC 80 964 4 302
1973072S12127 1973 37 SI WA NELLIE 1973-03-18 01:00:00 TS -16.9952 108.444 80 964 bom main 803 803 P_____O__PO_P_ SH301973 -16.9719 108.442 50 0 -17.0000 108.400 40 80 964 4.00000 5.00000 -16.9719 108.442 TC 79 964 -17.0000 108.400 2 45 -17.0557 108.542 TC 80 964 110 110 4 299
1973072S12127 1973 37 SI WA NELLIE 1973-03-18 03:00:00 TS -16.9259 108.317 main 818 818 P_____P__PP_P_ SH301973 -16.9150 108.315 50 0 -16.9412 108.259 40 76 965 -16.9150 108.315 TC 77 966 -16.9118 108.283 2 -16.9575 108.415 TC 80 965 4 300
1973072S12127 1973 37 SI WA NELLIE 1973-03-18 04:00:00 TS -16.8860 108.251 75 966 bom main 818 818 P_____O__PP_P_ SH301973 -16.8824 108.247 50 0 -16.9000 108.200 40 75 966 4.50000 -16.8824 108.247 TC 76 966 -16.8632 108.221 2 -16.9054 108.347 TC 80 965 104 104 5 306
1973072S12127 1973 37 SI WA NELLIE 1973-03-18 06:00:00 TS -16.7887 108.122 main 841 841 O_____P__OP_O_ jtwc_sh SH301973 -16.8000 108.100 50 0 -16.7721 108.144 40 75 967 -16.8000 108.100 TC 75 968 -16.7604 108.089 2 -16.8000 108.200 TC 80 967 5 310
1973072S12127 1973 37 SI WA NELLIE 1973-03-18 07:00:00 TS -16.7288 108.053 75 968 bom main 849 849 P_____O__PP_P_ SH301973 -16.7395 108.025 50 0 -16.7000 108.100 40 75 968 4.50000 -16.7395 108.028 TC 73 968 -16.7072 108.017 2 -16.7474 108.125 TC 78 967 104 104 6 310
1973072S12127 1973 37 SI WA NELLIE 1973-03-18 09:00:00 TS -16.6002 107.890 main 872 872 P_____P__PP_P_ SH301973 -16.6000 107.865 50 0 -16.5588 107.911 40 71 970 -16.5999 107.872 TC 70 971 -16.6002 107.864 2 -16.6425 107.965 TC 75 969 6 309
1973072S12127 1973 37 SI WA NELLIE 1973-03-18 10:00:00 TS -16.5374 107.801 70 971 bom main 887 887 P_____O__PP_P_ SH301973 -16.5284 107.780 50 0 -16.5000 107.800 40 70 971 4.50000 -16.5283 107.788 TC 68 971 -16.5475 107.780 2 -16.5921 107.880 TC 73 970 99 99 6 303
1973072S12127 1973 37 SI WA NELLIE 1973-03-18 12:00:00 TS -16.4291 107.616 main 911 911 O_____P__OP_O_ jtwc_sh SH301973 -16.4000 107.600 50 0 -16.4279 107.600 40 66 973 -16.4000 107.600 TC 65 974 -16.4469 107.599 2 -16.5000 107.700 TC 70 972 6 299
1973072S12127 1973 37 SI WA NELLIE 1973-03-18 13:00:00 TS -16.3878 107.522 65 974 bom main 918 918 P_____O__PO_P_ SH301973 -16.3552 107.514 49 0 -16.4000 107.500 40 65 974 4.50000 -16.3553 107.495 TC 64 974 -16.4000 107.500 2 -16.4609 107.608 TC 69 972 89 89 6 292
1973072S12127 1973 37 SI WA NELLIE 1973-03-18 15:00:00 TS -16.3149 107.324 main 942 942 P_____P__PP_P_ SH301973 -16.2849 107.330 47 0 -16.3333 107.308 40 65 976 -16.2850 107.265 TC 62 976 -16.3087 107.295 2 -16.3925 107.415 TC 67 974 6 290
1973072S12127 1973 37 SI WA NELLIE 1973-03-18 16:00:00 TS -16.2823 107.217 65 977 bom main 949 949 P_____O__PP_P_ SH301973 -16.2557 107.229 46 0 -16.3000 107.200 40 65 977 4.50000 -16.2558 107.144 TC 61 977 -16.2652 107.184 2 -16.3612 107.313 TC 66 974 89 89 7 286
1973072S12127 1973 37 SI WA NELLIE 1973-03-18 18:00:00 TS -16.2196 106.980 main 952 952 O_____P__OP_O_ jtwc_sh SH301973 -16.2000 107.000 45 0 -16.2334 106.931 40 61 978 -16.2000 106.900 TC 60 979 -16.1841 106.949 2 -16.3000 107.100 TC 65 976 7 286
1973072S12127 1973 37 SI WA NELLIE 1973-03-18 19:00:00 TS -16.1842 106.856 60 979 bom main 954 947 P_____O__PP_P_ SH301973 -16.1641 106.867 45 0 -16.2000 106.800 30 60 979 4.00000 -16.1613 106.791 TC 59 979 -16.1473 106.825 2 -16.2684 106.988 TC 64 976 84 84 8 287
1973072S12127 1973 37 SI WA NELLIE 1973-03-18 21:00:00 TS -16.1109 106.602 main 949 949 P_____P__PP_P_ SH301973 -16.0925 106.572 45 0 -16.1333 106.610 30 60 980 -16.0848 106.572 TC 57 980 -16.0827 106.564 2 -16.2026 106.757 TC 62 978 8 286
1973072S12127 1973 37 SI WA NELLIE 1973-03-18 22:00:00 TS -16.0743 106.461 60 981 bom main 951 943 P_____O__PP_P_ SH301973 -16.0588 106.416 45 0 -16.1000 106.500 30 60 981 4.00000 -16.0507 106.457 TC 56 980 -16.0557 106.428 2 -16.1688 106.639 TC 61 978 84 84 9 283
1973072S12127 1973 37 SI WA NELLIE 1973-03-19 00:00:00 TS -16.0123 106.157 main 945 947 O_____P__OP_O_ jtwc_sh SH301973 -16.0000 106.100 45 0 -16.0254 106.178 30 56 981 -16.0000 106.200 TC 55 982 -16.0140 106.146 2 -16.1000 106.400 TC 60 980 9 281
1973072S12127 1973 37 SI WA NELLIE 1973-03-19 01:00:00 TS -15.9851 105.990 55 982 bom main 949 949 P_____O__PO___ SH301973 -15.9697 105.950 -1 -16.0000 106.000 30 55 982 3.50000 4.00000 -15.9860 106.048 TC 55 982 -16.0000 106.000 2 TC 75 75 9 277
1973072S12127 1973 37 SI WA NELLIE 1973-03-19 03:00:00 TS -15.9558 105.675 main 957 951 P_____P__PP___ SH301973 -15.9199 105.650 -1 -15.9946 105.659 30 55 982 -15.9776 105.715 TC 55 982 -15.9672 105.701 2 TC 9 275
1973072S12127 1973 37 SI WA NELLIE 1973-03-19 04:00:00 TS -15.9492 105.517 55 983 bom main 951 951 P_____O__PP___ SH301973 -15.9041 105.500 -1 -16.0000 105.500 30 55 983 4.00000 -15.9813 105.542 TC 55 982 -15.9567 105.545 2 TC 75 75 9 271
1973072S12127 1973 37 SI WA NELLIE 1973-03-19 06:00:00 TS -15.9498 105.211 main 960 971 O_____P__OP___ jtwc_sh SH301973 -15.9000 105.200 -1 -16.0000 105.228 30 55 983 -16.0000 105.200 TC 55 983 -15.9490 105.227 2 9 269
1973072S12127 1973 37 SI WA NELLIE 1973-03-19 07:00:00 TS -15.9576 105.061 55 983 bom main 973 973 P_____O__PP___ SH301973 -15.9135 105.050 -1 -16.0000 105.100 30 55 983 4.00000 -16.0083 105.042 TC 55 983 -15.9527 105.065 2 75 75 9 265
1973072S12127 1973 37 SI WA NELLIE 1973-03-19 09:00:00 TS -15.9886 104.765 main 978 980 P_____P__PP___ SH301973 -15.9699 104.750 -1 -15.9920 104.849 30 51 984 -16.0349 104.735 TC 55 984 -15.9764 104.739 2 9 263
1973072S12127 1973 37 SI WA NELLIE 1973-03-19 10:00:00 TS -16.0137 104.613 50 985 bom main 982 982 P_____O__PP___ SH301973 -16.0091 104.600 -1 -16.0000 104.700 30 50 985 3.50000 -16.0533 104.587 TC 55 984 -15.9973 104.576 2 69 69 9 258
1973072S12127 1973 37 SI WA NELLIE 1973-03-19 12:00:00 TS -16.0840 104.289 main 1000 1000 O_____P__OP___ jtwc_sh SH301973 -16.1000 104.300 -1 -16.0613 104.287 30 50 985 -16.1000 104.300 TC 55 985 -16.0587 104.256 2 9 257
1973072S12127 1973 37 SI WA NELLIE 1973-03-19 13:00:00 TS -16.1190 104.133 50 985 bom main 1005 1005 P_____O__PO___ SH301973 -16.1390 104.150 -1 -16.1000 104.100 30 50 985 3.50000 -16.1170 104.163 TC 54 985 -16.1000 104.100 2 69 69 9 255
1973072S12127 1973 37 SI WA NELLIE 1973-03-19 15:00:00 TS -16.1944 103.859 main 1022 1025 P_____P__PP___ SH301973 -16.2274 103.850 -1 -16.1587 103.899 30 50 985 -16.1623 103.900 TC 52 985 -16.1963 103.795 2 8 253
1973072S12127 1973 37 SI WA NELLIE 1973-03-19 16:00:00 TS -16.2417 103.723 50 986 bom main 1028 1028 P_____O__PP___ SH301973 -16.2787 103.700 -1 -16.2000 103.800 30 50 986 3.50000 -16.1962 103.769 TC 51 985 -16.2551 103.645 2 69 69 9 248
1973072S12127 1973 37 SI WA NELLIE 1973-03-19 18:00:00 TS -16.3638 103.424 main 1059 1059 O_____P__OP___ jtwc_sh SH301973 -16.4000 103.400 -1 -16.3279 103.470 30 50 986 -16.3000 103.500 TC 50 986 -16.3912 103.350 2 10 246
1973072S12127 1973 37 SI WA NELLIE 1973-03-19 19:00:00 TS -16.4366 103.270 50 986 bom main 1062 1062 P_____O__PP___ SH301973 -16.4693 103.245 -1 -16.4000 103.300 30 50 986 3.50000 -16.3772 103.353 TC 50 986 -16.4673 103.205 2 69 69 10 242
1973072S12127 1973 37 SI WA NELLIE 1973-03-19 21:00:00 TS -16.5950 102.976 main 1094 1094 P_____P__PP___ SH301973 -16.6275 102.935 -1 -16.5175 103.036 30 50 986 -16.5700 103.050 TC 50 986 -16.6327 102.924 2 10 239
1973072S12127 1973 37 SI WA NELLIE 1973-03-19 22:00:00 TS -16.6856 102.831 50 986 bom main 1112 1112 P_____O__PP___ SH301973 -16.7146 102.784 -1 -16.6000 102.900 30 50 986 3.50000 -16.6783 102.898 TC 50 986 -16.7208 102.788 2 69 69 10 235
1973072S12127 1973 37 SI WA NELLIE 1973-03-20 00:00:00 TS -16.8938 102.536 main 1145 1145 O_____P__OP___ jtwc_sh SH301973 -16.9000 102.500 -1 -16.8637 102.556 30 50 986 -16.9000 102.600 TC 50 987 -16.9051 102.526 2 10 233
1973072S12127 1973 37 SI WA NELLIE 1973-03-20 01:00:00 TS -16.9977 102.399 50 987 bom main 1159 1159 P_____O__PO___ SH301973 -16.9942 102.369 -1 -17.0000 102.400 30 50 987 3.50000 -17.0000 102.456 TC 50 987 -17.0000 102.400 2 69 69 9 230
1973072S12127 1973 37 SI WA NELLIE 1973-03-20 03:00:00 TS -17.1929 102.159 main 1188 1192 P_____P__PP___ SH301973 -17.1924 102.127 -1 -17.2054 102.197 30 50 987 -17.2000 102.177 TC 50 987 -17.1746 102.165 2 9 229
1973072S12127 1973 37 SI WA NELLIE 1973-03-20 04:00:00 TS -17.2909 102.046 50 988 bom main 1207 1207 P_____O__PP___ SH301973 -17.2945 102.014 -1 -17.3000 102.100 30 50 988 3.50000 -17.3000 102.045 TC 50 987 -17.2658 102.054 2 69 69 9 228
1973072S12127 1973 37 SI WA NELLIE 1973-03-20 06:00:00 TS -17.4911 101.814 main 1236 1236 O_____P__OP___ jtwc_sh SH301973 -17.5000 101.800 -1 -17.5000 101.831 30 50 988 -17.5000 101.800 TC 50 988 -17.4556 101.839 2 9 228
1973072S12127 1973 37 SI WA NELLIE 1973-03-20 07:00:00 TS -17.5887 101.703 50 988 bom main 1250 1250 P_____O__PP___ SH301973 -17.5973 101.697 -1 -17.6000 101.700 30 50 988 3.50000 -17.5947 101.688 TC 49 988 -17.5543 101.734 2 69 69 8 225
1973072S12127 1973 37 SI WA NELLIE 1973-03-20 09:00:00 TS -17.7858 101.501 main 1279 1279 P_____P__PP___ SH301973 -17.7924 101.500 -1 -17.8000 101.495 30 46 989 -17.7849 101.485 TC 47 989 -17.7594 101.527 2 8 224
1973072S12127 1973 37 SI WA NELLIE 1973-03-20 10:00:00 TS -17.8868 101.403 45 990 bom main 1294 1294 P_____O__PP___ SH301973 -17.8920 101.402 -1 -17.9000 101.400 30 45 990 3.00000 -17.8841 101.389 TC 46 989 -17.8658 101.422 2 64 64 8 223
1973072S12127 1973 37 SI WA NELLIE 1973-03-20 12:00:00 TS -18.0956 101.202 main 1323 1323 O_____P__OP___ jtwc_sh SH301973 -18.1000 101.200 -1 -18.0921 101.200 30 45 990 -18.1000 101.200 TC 45 990 -18.0861 101.210 2 9 222
1973072S12127 1973 37 SI WA NELLIE 1973-03-20 13:00:00 TS -18.2082 101.098 45 990 bom main 1338 1338 P_____O__PO___ SH301973 -18.2083 101.092 -1 -18.2000 101.100 30 45 990 3.00000 -18.2245 101.105 TC 45 990 -18.2000 101.100 2 64 64 9 220
1973072S12127 1973 37 SI WA NELLIE 1973-03-20 15:00:00 TS -18.4580 100.884 main 1378 1378 P_____P__PP___ SH301973 -18.4349 100.865 -1 -18.4612 100.900 30 41 990 -18.4924 100.915 TC 45 990 -18.4666 100.878 2 10 219
1973072S12127 1973 37 SI WA NELLIE 1973-03-20 16:00:00 TS -18.5885 100.775 40 991 bom main 1392 1392 P_____O__PP___ SH301973 -18.5533 100.747 -1 -18.6000 100.800 30 40 991 3.00000 -18.6303 100.816 TC 45 990 -18.6058 100.764 2 55 55 10 219
1973072S12127 1973 37 SI WA NELLIE 1973-03-20 18:00:00 TS -18.8522 100.546 main 1422 1422 O_____P__OP___ jtwc_sh SH301973 -18.8000 100.500 -1 -18.8746 100.600 30 40 991 -18.9000 100.600 TC 45 991 -18.8864 100.531 2 10 220
1973072S12127 1973 37 SI WA NELLIE 1973-03-20 19:00:00 TS -18.9872 100.428 40 991 bom main 1429 1425 P_____O__PP___ SH301973 -18.9407 100.375 -1 -19.0000 100.500 30 40 991 3.00000 -19.0302 100.481 TC 45 991 -19.0242 100.411 2 55 55 10 221
1973072S12127 1973 37 SI WA NELLIE 1973-03-20 21:00:00 TS -19.2446 100.187 main 1442 1438 P_____P__PP___ SH301973 -19.2299 100.115 -1 -19.1974 100.324 30 40 991 -19.2799 100.223 TC 45 991 -19.2857 100.159 2 10 223
1973072S12127 1973 37 SI WA NELLIE 1973-03-20 22:00:00 TS -19.3672 100.055 40 991 bom main 1445 1445 P_____O__PP___ SH301973 -19.3673 99.9801 -1 -19.3000 100.200 30 40 991 3.00000 -19.3957 100.085 TC 45 991 -19.4056 100.027 2 55 55 11 230
1973072S12127 1973 37 SI WA NELLIE 1973-03-21 00:00:00 TS -19.5984 99.7481 main 1479 1479 O_____P__OP___ jtwc_sh SH301973 -19.6000 99.7000 -1 -19.5772 99.7927 30 36 991 -19.6000 99.8000 TC 45 992 -19.6146 99.7479 2 11 233
1973072S12127 1973 37 SI WA NELLIE 1973-03-21 01:00:00 TS -19.6939 99.5971 35 992 bom main 1486 1486 P_____O__PO___ SH301973 -19.6863 99.5608 -1 -19.7000 99.6000 30 35 992 2.50000 3.00000 -19.6968 99.6636 TC 44 992 -19.7000 99.6000 2 49 49 9 240
1973072S12127 1973 37 SI WA NELLIE 1973-03-21 03:00:00 TS -19.8305 99.3200 main 1514 1514 P_____P__PP___ SH301973 -19.8098 99.2723 -1 -19.8520 99.4073 30 35 992 -19.8597 99.3801 TC 42 992 -19.8210 99.2680 2 9 245
1973072S12127 1973 37 SI WA NELLIE 1973-03-21 04:00:00 TS -19.8776 99.1729 35 993 bom main 1521 1521 P_____O__PP___ SH301973 -19.8507 99.1211 -1 -19.9000 99.3000 30 35 993 3.00000 -19.9222 99.2292 TC 41 992 -19.8643 99.0931 2 49 49 9 257
1973072S12127 1973 37 SI WA NELLIE 1973-03-21 06:00:00 TS -19.9402 98.8297 main 1562 1562 O_____P__OP___ jtwc_sh SH301973 -19.9000 98.8000 -1 -19.9800 98.9163 30 35 993 -20.0000 98.9000 TC 40 993 -19.9207 98.7323 2 10 261
1973072S12127 1973 37 SI WA NELLIE 1973-03-21 07:00:00 TS -19.9596 98.6403 35 993 bom main 1579 1579 P_____O__PP___ SH301973 -19.9224 98.6228 -1 -20.0000 98.7000 30 35 993 3.00000 -20.0173 98.7065 TC 40 993 -19.9358 98.5492 2 49 49 11 267
1973072S12127 1973 37 SI WA NELLIE 1973-03-21 09:00:00 TS -19.9671 98.2553 main 1610 1620 P_____P__PP___ SH301973 -19.9376 98.2499 -1 -20.0133 98.3000 30 35 994 -20.0028 98.2923 TC 40 994 -19.9441 98.1845 2 11 270
1973072S12127 1973 37 SI WA NELLIE 1973-03-21 10:00:00 TS -19.9560 98.0627 35 995 bom main 1630 1630 P_____O__PP___ SH301973 -19.9322 98.0617 -1 -20.0000 98.1000 30 35 995 3.00000 -19.9765 98.0845 TC 40 994 -19.9393 98.0057 2 49 49 11 276
1973072S12127 1973 37 SI WA NELLIE 1973-03-21 12:00:00 TS -19.9126 97.6877 main 1673 1673 O_____P__OP___ jtwc_sh SH301973 -19.9000 97.7000 -1 -19.9467 97.6763 30 35 995 -19.9000 97.7000 TC 40 995 -19.9163 97.6621 2 10 278
1973072S12127 1973 37 SI WA NELLIE 1973-03-21 13:00:00 TS -19.8808 97.5221 35 995 bom main 1685 1681 P_____O__PO___ SH301973 -19.8754 97.5333 -1 -19.9000 97.5000 30 35 995 3.00000 -19.8534 97.5438 TC 39 995 -19.9000 97.5000 2 49 49 9 285
1973072S12127 1973 37 SI WA NELLIE 1973-03-21 15:00:00 TS -19.7962 97.2407 main 1692 1692 P_____P__PP___ SH301973 -19.8074 97.2199 -1 -19.7641 97.2916 30 31 995 -19.7422 97.2699 TC 37 995 -19.8598 97.2021 2 8 288
1973072S12127 1973 37 SI WA NELLIE 1973-03-21 16:00:00 TS -19.7516 97.1104 30 996 bom main 1698 1688 P_____O__PP___ SH301973 -19.7695 97.0732 -1 -19.7000 97.2000 20 30 996 2.50000 -19.6869 97.1448 TC 36 995 -19.8320 97.0608 2 45 45 8 288
1973072S12127 1973 37 SI WA NELLIE 1973-03-21 18:00:00 TS -19.6776 96.8464 main 1705 1705 O_____P__OP___ jtwc_sh SH301973 -19.7000 96.8000 -1 -19.6200 96.9388 20 30 996 -19.6000 96.9000 TC 35 996 -19.7679 96.7931 2 8 285
1973072S12127 1973 37 SI WA NELLIE 1973-03-21 19:00:00 TS -19.6503 96.7133 30 996 bom main 1711 1702 P_____O__PP___ SH301973 -19.6697 96.6693 -1 -19.6000 96.8000 20 30 996 2.50000 -19.5776 96.7615 TC 35 996 -19.7345 96.6665 2 45 45 7 280
1973072S12127 1973 37 SI WA NELLIE 1973-03-21 21:00:00 TS -19.6137 96.4601 main 1713 1719 P_____P__PP___ SH301973 -19.6199 96.4275 -1 -19.5945 96.5334 20 30 996 -19.5625 96.4851 TC 35 996 -19.6714 96.4271 2 7 277
1973072S12127 1973 37 SI WA NELLIE 1973-03-21 22:00:00 TS -19.6042 96.3388 30 996 bom main 1725 1725 P_____O__PP___ SH301973 -19.6041 96.3145 -1 -19.6000 96.4000 20 30 996 2.50000 -19.5679 96.3509 TC 35 996 -19.6447 96.3140 2 45 45 7 272
1973072S12127 1973 37 SI WA NELLIE 1973-03-22 00:00:00 TS -19.5999 96.1052 main 1737 1737 O_____P__OP___ jtwc_sh SH301973 -19.6000 96.1000 -1 -19.5921 96.1254 20 30 996 -19.6000 96.1000 TC 35 997 -19.6076 96.1006 2 7 269
1973072S12127 1973 37 SI WA NELLIE 1973-03-22 01:00:00 TS -19.6108 95.9923 30 997 bom main 1744 1744 P_____O__PO___ SH301973 -19.6162 95.9891 -1 -19.6000 96.0000 20 30 997 1.50000 2.50000 -19.6219 95.9834 TC 34 997 -19.6000 96.0000 2 45 45 6 258
1973072S12127 1973 37 SI WA NELLIE 1973-03-22 03:00:00 TS -19.6655 95.7829 main 1765 1765 P_____P__PP___ SH301973 -19.6775 95.7776 -1 -19.6612 95.7946 20 26 998 -19.6849 95.7701 TC 32 998 -19.6265 95.7946 2 6 253
1973072S12127 1973 37 SI WA NELLIE 1973-03-22 04:00:00 TS -19.7012 95.6859 25 999 bom main 1771 1771 P_____O__PP___ SH301973 -19.7170 95.6789 -1 -19.7000 95.7000 20 25 999 2.00000 -19.7224 95.6734 TC 31 998 -19.6494 95.6983 2 45 45 6 248
1973072S12127 1973 37 SI WA NELLIE 1973-03-22 06:00:00 TS -19.7755 95.5019 main 1793 1793 O_____P__OP___ jtwc_sh SH301973 -19.8000 95.5000 -1 -19.7667 95.4921 20 25 999 -19.8000 95.5000 TC 30 999 -19.7106 95.5176 2 5 246
1973072S12127 1973 37 SI WA NELLIE 1973-03-22 07:00:00 TS -19.8094 95.4192 25 999 bom main 1799 1799 P_____O__PP___ SH301973 -19.8333 95.4219 -1 -19.8000 95.4000 20 25 999 2.00000 -19.8333 95.4193 TC 29 999 -19.7472 95.4331 2 45 45 5 244
1973072S12127 1973 37 SI WA NELLIE 1973-03-22 09:00:00 TS -19.8790 95.2767 main 1814 1814 P_____P__PP___ SH301973 -19.8999 95.2850 -1 -19.8666 95.2612 20 25 1000 -19.8999 95.2775 TC 27 1000 -19.8284 95.2750 2 4 242
1973072S12127 1973 37 SI WA NELLIE 1973-03-22 10:00:00 TS -19.9142 95.2121 25 1001 bom main 1821 1821 P_____O__PP___ SH301973 -19.9333 95.2224 -1 -19.9000 95.2000 20 25 1001 2.00000 -19.9333 95.2145 TC 26 1000 -19.8714 95.2013 2 45 45 4 240
1973072S12127 1973 37 SI WA NELLIE 1973-03-22 12:00:00 TS -19.9849 95.0845 main 1836 1836 O_____P__OP___ jtwc_sh SH301973 -20.0000 95.1000 -1 -19.9667 95.0588 20 25 1001 -20.0000 95.1000 TC 25 1002 -19.9580 95.0639 2 4 239
1973072S12127 1973 37 SI WA NELLIE 1973-03-22 13:00:00 TS -20.0200 95.0217 25 1002 bom main 1842 1842 P_____O__PO___ SH301973 -20.0333 95.0307 -1 -20.0000 95.0000 20 25 1002 2.00000 -20.0333 95.0469 TC 25 1002 -20.0000 95.0000 2 45 45 4 238
1973072S12127 1973 37 SI WA NELLIE 1973-03-22 15:00:00 TS -20.0890 94.9104 main 1858 1858 P_____P__PP___ SH301973 -20.1000 94.8925 -1 -20.0667 94.9358 20 25 1002 -20.0999 94.9500 TC 25 1002 -20.0786 94.8812 2 4 236
1973072S12127 1973 37 SI WA NELLIE 1973-03-22 16:00:00 TS -20.1231 94.8558 25 1002 bom main 1858 1858 P_____O__PP___ SH301973 -20.1333 94.8254 -1 -20.1000 94.9000 20 25 1002 1.50000 -20.1333 94.9024 TC 25 1002 -20.1154 94.8258 2 45 45 4 239
1973072S12127 1973 37 SI WA NELLIE 1973-03-22 18:00:00 TS -20.1903 94.7387 main 1879 1879 O_____P__OP___ jtwc_sh SH301973 -20.2000 94.7000 -1 -20.1667 94.7721 20 25 1002 -20.2000 94.8000 TC 25 1002 -20.1847 94.7216 2 4 238
1973072S12127 1973 37 SI WA NELLIE 1973-03-22 19:00:00 TS -20.2235 94.6801 25 1002 bom main 1879 1879 P_____O__PP___ SH301973 -20.2333 94.6432 -1 -20.2000 94.7000 20 25 1002 1.50000 -20.2334 94.7419 TC 24 1002 -20.2176 94.6723 2 45 45 4 239
1973072S12127 1973 37 SI WA NELLIE 1973-03-22 21:00:00 TS -20.2876 94.5662 main 1895 1895 P_____P__PP___ SH301973 -20.3000 94.5400 -1 -20.2667 94.5588 20 25 1002 -20.3001 94.6126 TC 22 1003 -20.2806 94.5781 2 4 239
1973072S12127 1973 37 SI WA NELLIE 1973-03-22 22:00:00 TS -20.3194 94.5128 25 1003 bom main 1901 1901 P_____O__PP___ SH301973 -20.3333 94.4921 -1 -20.3000 94.5000 20 25 1003 1.50000 -20.3334 94.5433 TC 21 1003 -20.3110 94.5327 2 45 45 3 236
1973072S12127 1973 37 SI WA NELLIE 1973-03-23 00:00:00 TS -20.3821 94.4198 main 1916 1916 O_____P__OP___ jtwc_sh SH301973 -20.4000 94.4000 -1 -20.3667 94.4254 20 25 1003 -20.4000 94.4000 TC 20 1004 -20.3706 94.4439 2 3 232
1973072S12127 1973 37 SI WA NELLIE 1973-03-23 01:00:00 NR -20.4000 94.4000 25 1004 bom main 1916 ______O___O___ SH301973 -1 -20.4000 94.4000 20 25 1004 1.50000 TC -20.4000 94.4000 2 45 45 2 0

IBTrACS Databaseについて

本データベースは、米国NOAAが公開する1842年以降の世界の熱帯低気圧のベストトラックデータアーカイブInternational Best Track Archive for Climate Stewardship (IBTrACS)を、ウェブで閲覧しやすい形式に変換したものです。

最終更新日:2021-12-03